Time;durP1;ratioP1;P1;durP2;ratioP2;P2;SDS_P1;SDS_P2;PMS_P1;PMS_P2;Temp;Humidity;BMP_temperature;BMP_pressure;BME280_temperature;BME280_humidity;BME280_pressure;Samples;Min_cycle;Max_cycle;Signal;HPM_P1;HPM_P2
2023/01/18 00:01:57;;;;;;;15.23;7.50;;;;;;;0.63;100.00;95717.75;4883121;29;20725;-58
2023/01/18 00:04:24;;;;;;;13.83;6.93;;;;;;;0.58;100.00;95711.34;4880383;29;20315;-59
2023/01/18 00:06:50;;;;;;;15.10;7.47;;;;;;;0.59;100.00;95717.28;4883097;29;20259;-58
2023/01/18 00:09:18;;;;;;;13.40;7.20;;;;;;;0.64;100.00;95720.19;4883295;29;20351;-58
2023/01/18 00:11:47;;;;;;;15.13;7.70;;;;;;;0.67;100.00;95717.28;4879837;29;20249;-58
2023/01/18 00:14:14;;;;;;;13.33;7.77;;;;;;;0.65;100.00;95715.84;4882128;29;20231;-59
2023/01/18 00:16:40;;;;;;;16.57;7.97;;;;;;;0.61;100.00;95720.50;4879627;29;20249;-58
2023/01/18 00:19:11;;;;;;;17.23;8.60;;;;;;;0.58;100.00;95721.59;4881008;29;20610;-59
2023/01/18 00:21:39;;;;;;;15.13;8.40;;;;;;;0.59;100.00;95719.84;4877113;29;20251;-58
2023/01/18 00:24:09;;;;;;;16.17;8.17;;;;;;;0.59;100.00;95722.41;4883941;29;20227;-59
2023/01/18 00:26:37;;;;;;;14.53;8.37;;;;;;;0.61;100.00;95727.38;4880308;29;20725;-59
2023/01/18 00:29:04;;;;;;;14.57;7.57;;;;;;;0.60;100.00;95731.72;4882588;29;20326;-57
2023/01/18 00:31:32;;;;;;;14.43;7.20;;;;;;;0.59;100.00;95725.00;4880845;29;20255;-57
2023/01/18 00:33:58;;;;;;;16.40;7.33;;;;;;;0.58;100.00;95723.38;4881477;29;20255;-58
2023/01/18 00:36:26;;;;;;;14.97;7.93;;;;;;;0.56;100.00;95731.22;4880216;29;20243;-58
2023/01/18 00:38:53;;;;;;;13.33;7.80;;;;;;;0.58;100.00;95731.09;4883267;29;20332;-57
2023/01/18 00:41:20;;;;;;;15.27;7.37;;;;;;;0.58;100.00;95736.22;4895582;29;20300;-57
2023/01/18 00:43:47;;;;;;;14.10;7.60;;;;;;;0.62;100.00;95732.38;4879520;29;20396;-58
2023/01/18 00:46:16;;;;;;;15.50;7.73;;;;;;;0.55;100.00;95728.84;4882184;29;20612;-58
2023/01/18 00:48:44;;;;;;;15.37;7.73;;;;;;;0.54;100.00;95727.22;4879799;29;20293;-61
2023/01/18 00:51:13;;;;;;;16.63;8.60;;;;;;;0.54;100.00;95727.22;4883495;29;20234;-58
2023/01/18 00:53:40;;;;;;;16.20;8.10;;;;;;;0.54;100.00;95724.66;4880040;29;20252;-58
2023/01/18 00:56:08;;;;;;;13.13;6.90;;;;;;;0.48;100.00;95726.13;4882487;29;20451;-59
2023/01/18 00:58:36;;;;;;;12.73;6.90;;;;;;;0.50;100.00;95739.59;4877913;29;20239;-59
2023/01/18 01:01:05;;;;;;;12.97;7.10;;;;;;;0.52;100.00;95739.41;4882684;29;20244;-58
2023/01/18 01:06:42;;;;;;;12.63;7.03;;;;;;;0.50;100.00;95731.91;4878916;29;20788;-58
2023/01/18 01:09:08;;;;;;;15.43;7.73;;;;;;;0.51;100.00;95735.25;4879839;29;20292;-58
2023/01/18 01:11:34;;;;;;;23.30;7.90;;;;;;;0.42;100.00;95734.44;4879257;29;20721;-58
2023/01/18 01:27:44;;;;;;;12.80;6.70;;;;;;;0.44;100.00;95766.69;4879059;29;20762;-59
2023/01/18 01:30:11;;;;;;;11.73;7.40;;;;;;;0.44;100.00;95768.44;4881011;29;20236;-58
2023/01/18 01:32:39;;;;;;;12.13;7.43;;;;;;;0.46;100.00;95769.09;4878805;29;20328;-58
2023/01/18 01:35:05;;;;;;;11.80;6.87;;;;;;;0.44;100.00;95769.25;4881463;29;20307;-57
2023/01/18 01:37:32;;;;;;;13.47;7.73;;;;;;;0.47;100.00;95773.28;4879122;29;20330;-58
2023/01/18 01:39:59;;;;;;;9.50;6.30;;;;;;;0.48;100.00;95776.63;4881853;29;20267;-58
2023/01/18 01:42:25;;;;;;;11.90;6.43;;;;;;;0.50;100.00;95774.72;4879026;29;20244;-58
2023/01/18 01:44:52;;;;;;;11.13;5.93;;;;;;;0.47;100.00;95775.84;4882636;29;20267;-57
2023/01/18 01:47:26;;;;;;;10.87;6.10;;;;;;;0.44;100.00;95782.06;4881181;29;20249;-57
2023/01/18 01:49:58;;;;;;;10.87;6.73;;;;;;;0.44;100.00;95784.63;4879688;29;20235;-58
2023/01/18 01:52:31;;;;;;;11.67;6.27;;;;;;;0.49;100.00;95789.31;4879217;29;20235;-59
2023/01/18 01:55:01;;;;;;;10.97;5.87;;;;;;;0.49;100.00;95793.63;4881746;29;20731;-59
2023/01/18 01:57:32;;;;;;;11.43;6.40;;;;;;;0.53;100.00;95802.63;4876093;29;20332;-58
2023/01/18 02:00:00;;;;;;;11.77;6.30;;;;;;;0.51;100.00;95799.41;4878146;29;20241;-58
2023/01/18 02:02:29;;;;;;;10.80;6.53;;;;;;;0.51;100.00;95800.22;4878366;29;20225;-58
2023/01/18 02:04:59;;;;;;;13.00;6.87;;;;;;;0.55;100.00;95810.97;4879877;29;20608;-58
2023/01/18 02:07:27;;;;;;;12.80;6.93;;;;;;;0.55;100.00;95806.63;4878307;29;20692;-58
2023/01/18 02:09:54;;;;;;;12.90;7.10;;;;;;;0.56;100.00;95808.22;4881078;29;20260;-59
2023/01/18 02:12:21;;;;;;;11.97;6.80;;;;;;;0.54;100.00;95811.94;4882107;29;20244;-59
2023/01/18 02:14:47;;;;;;;10.63;6.30;;;;;;;0.51;100.00;95814.81;4878738;29;20296;-58
2023/01/18 02:17:30;;;;;;;10.20;7.03;;;;;;;0.51;100.00;95817.38;4880525;29;20239;-58
2023/01/18 02:20:24;;;;;;;11.90;6.77;;;;;;;0.48;100.00;95815.13;4878246;29;20244;-58
2023/01/18 02:23:26;;;;;;;10.87;6.83;;;;;;;0.46;100.00;95822.19;4873123;29;20598;-58
2023/01/18 02:26:34;;;;;;;9.93;6.40;;;;;;;0.37;100.00;95822.16;4879314;29;20281;-58
2023/01/18 02:29:13;;;;;;;9.90;6.17;;;;;;;0.38;100.00;95823.75;4891014;29;20765;-59
2023/01/18 02:31:50;;;;;;;10.97;6.73;;;;;;;0.35;100.00;95829.19;4877868;29;20300;-58
2023/01/18 02:34:29;;;;;;;11.40;7.17;;;;;;;0.36;100.00;95840.28;4880305;29;20764;-58
2023/01/18 02:37:05;;;;;;;10.73;6.33;;;;;;;0.38;100.00;95840.94;4876093;29;20240;-57
2023/01/18 02:39:41;;;;;;;11.90;6.63;;;;;;;0.34;100.00;95850.69;4877356;29;20235;-59
2023/01/18 02:47:48;;;;;;;12.47;7.23;;;;;;;0.32;100.00;95856.94;4875235;29;20706;-58
2023/01/18 02:50:22;;;;;;;10.53;6.47;;;;;;;0.30;100.00;95862.22;4877992;29;20236;-58
2023/01/18 02:52:50;;;;;;;12.27;6.20;;;;;;;0.28;100.00;95866.69;4876766;29;20330;-57
2023/01/18 02:55:28;;;;;;;10.83;6.23;;;;;;;0.28;100.00;95869.25;4877457;29;20299;-60
2023/01/18 02:58:02;;;;;;;10.83;6.90;;;;;;;0.24;100.00;95878.22;4879016;29;20268;-57
2023/01/18 03:00:34;;;;;;;9.80;6.20;;;;;;;0.24;100.00;95878.22;4877537;29;20243;-57
2023/01/18 03:03:02;;;;;;;11.83;7.07;;;;;;;0.24;100.00;95880.78;4879601;29;20240;-57
2023/01/18 03:05:30;;;;;;;15.37;7.20;;;;;;;0.27;100.00;95888.19;4878827;29;20234;-59
2023/01/18 03:08:05;;;;;;;12.20;7.50;;;;;;;0.34;100.00;95888.38;4881558;29;20252;-57
2023/01/18 03:10:35;;;;;;;13.13;6.93;;;;;;;0.34;100.00;95894.31;4880401;29;20235;-58
2023/01/18 03:13:08;;;;;;;9.87;6.57;;;;;;;0.37;100.00;95891.44;4884470;29;20235;-59
2023/01/18 03:15:46;;;;;;;9.87;5.40;;;;;;;0.37;100.00;95891.44;4880342;29;20303;-58
2023/01/18 03:18:18;;;;;;;8.47;5.30;;;;;;;0.39;100.00;95896.44;4883645;29;20302;-58
2023/01/18 03:20:51;;;;;;;6.73;4.20;;;;;;;0.32;100.00;95903.91;4881112;29;20636;-58
2023/01/18 03:23:38;;;;;;;6.60;4.07;;;;;;;0.32;100.00;95905.69;4883237;29;20292;-58
2023/01/18 03:26:06;;;;;;;7.03;4.00;;;;;;;0.27;100.00;95908.72;4880602;29;20237;-58
2023/01/18 03:34:20;;;;;;;7.07;4.10;;;;;;;0.05;100.00;95918.53;4881220;29;20243;-57
2023/01/18 03:36:50;;;;;;;6.27;3.73;;;;;;;0.09;100.00;95922.41;4879116;29;20238;-57
2023/01/18 03:39:22;;;;;;;5.23;3.80;;;;;;;0.01;100.00;95924.13;4884303;29;20238;-59
2023/01/18 03:41:54;;;;;;;5.83;3.60;;;;;;;0.10;100.00;95938.63;4881811;29;20247;-57
2023/01/18 03:44:24;;;;;;;6.63;3.60;;;;;;;0.05;100.00;95940.81;4881122;29;20742;-61
2023/01/18 03:46:52;;;;;;;5.07;2.73;;;;;;;0.00;100.00;95946.44;4881242;29;20247;-57
2023/01/18 03:49:19;;;;;;;9.53;4.47;;;;;;;0.03;100.00;95950.44;4885274;29;20298;-57
2023/01/18 03:51:59;;;;;;;7.27;4.13;;;;;;;0.01;100.00;95953.13;4879861;29;20733;-57
2023/01/18 03:54:33;;;;;;;5.50;3.37;;;;;;;-0.01;100.00;95961.00;4881169;29;20232;-57
2023/01/18 03:57:04;;;;;;;10.57;4.30;;;;;;;0.02;100.00;95970.13;4883593;29;20663;-58
2023/01/18 03:59:37;;;;;;;10.73;4.37;;;;;;;0.05;100.00;95969.03;4882469;29;20232;-58
2023/01/18 04:02:06;;;;;;;7.57;4.43;;;;;;;0.08;100.00;95977.22;4883357;29;20282;-57
2023/01/18 04:04:32;;;;;;;10.17;4.53;;;;;;;0.04;100.00;95986.19;4881752;29;20634;-59
2023/01/18 04:06:59;;;;;;;9.97;5.00;;;;;;;0.01;100.00;95993.38;4883599;29;20258;-58
2023/01/18 04:09:26;;;;;;;11.80;6.33;;;;;;;-0.01;100.00;95994.34;4881450;29;20353;-59
2023/01/18 04:11:52;;;;;;;9.37;5.43;;;;;;;-0.05;100.00;96005.06;4884866;29;20239;-59
2023/01/18 04:14:19;;;;;;;10.43;5.13;;;;;;;-0.13;100.00;96003.22;4883362;29;21712;-58
2023/01/18 04:16:45;;;;;;;11.97;6.17;;;;;;;-0.18;100.00;96013.94;4879044;29;20240;-58
2023/01/18 04:19:13;;;;;;;12.13;5.90;;;;;;;-0.22;100.00;96015.19;4884073;29;20238;-57
2023/01/18 04:21:40;;;;;;;11.93;6.00;;;;;;;-0.18;100.00;96025.94;4879023;29;20303;-57
2023/01/18 04:24:07;;;;;;;10.03;5.87;;;;;;;-0.20;100.00;96026.09;4881680;29;20286;-57
2023/01/18 04:26:34;;;;;;;10.37;6.17;;;;;;;-0.22;100.00;96025.44;4879396;29;20287;-58
2023/01/18 04:29:00;;;;;;;11.57;5.90;;;;;;;-0.27;100.00;96030.19;4883307;29;20239;-57
2023/01/18 04:31:27;;;;;;;11.50;5.63;;;;;;;-0.20;100.00;96032.97;5082131;23;20269;-58
2023/01/18 04:33:54;;;;;;;10.00;5.60;;;;;;;-0.24;100.00;96044.47;4917139;28;20656;-57
2023/01/18 04:36:22;;;;;;;9.57;5.40;;;;;;;-0.24;100.00;96042.72;4920849;28;20237;-57
2023/01/18 04:38:52;;;;;;;10.83;6.40;;;;;;;-0.24;100.00;96045.28;4920483;28;20305;-56
2023/01/18 04:41:19;;;;;;;10.97;5.90;;;;;;;-0.23;100.00;96048.63;4916523;28;20590;-57
2023/01/18 04:43:46;;;;;;;13.77;6.73;;;;;;;-0.32;100.00;96053.69;4909679;28;20232;-58
2023/01/18 04:46:14;;;;;;;12.57;6.40;;;;;;;-0.32;100.00;96061.38;4918379;23;20234;-58
2023/01/18 04:48:40;;;;;;;10.10;5.90;;;;;;;-0.31;100.00;96068.13;4895984;28;20228;-58
2023/01/18 04:51:11;;;;;;;12.97;7.43;;;;;;;-0.30;100.00;96074.84;4898287;28;20917;-58
2023/01/18 04:53:40;;;;;;;13.83;6.90;;;;;;;-0.27;100.00;96072.94;4897336;28;20233;-58
2023/01/18 04:56:07;;;;;;;12.70;7.23;;;;;;;-0.25;100.00;96082.13;4899960;29;20792;-58
2023/01/18 04:58:34;;;;;;;13.43;7.60;;;;;;;-0.26;100.00;96082.25;4898896;29;20239;-57
2023/01/18 05:01:01;;;;;;;12.90;7.70;;;;;;;-0.26;100.00;96077.94;4900075;29;20248;-58
2023/01/18 05:03:27;;;;;;;13.83;7.23;;;;;;;-0.22;100.00;96086.13;4898518;28;20226;-58
2023/01/18 05:05:54;;;;;;;11.33;7.00;;;;;;;-0.24;100.00;96083.75;4898502;29;20250;-59
2023/01/18 05:08:21;;;;;;;10.63;6.73;;;;;;;-0.18;100.00;96101.09;4900784;28;20297;-58
2023/01/18 05:10:49;;;;;;;13.97;7.43;;;;;;;-0.18;100.00;96095.16;4898432;28;20685;-58
2023/01/18 05:13:15;;;;;;;12.97;7.57;;;;;;;-0.19;100.00;96099.50;4896010;28;20283;-59
2023/01/18 05:15:42;;;;;;;13.60;8.50;;;;;;;-0.16;100.00;96106.88;4892138;29;20265;-59
2023/01/18 05:18:09;;;;;;;11.80;8.03;;;;;;;-0.10;100.00;96112.38;4897450;28;20243;-59
2023/01/18 05:20:35;;;;;;;13.10;7.40;;;;;;;-0.09;100.00;96127.63;4896111;28;20275;-60
2023/01/18 05:23:09;;;;;;;14.93;7.70;;;;;;;-0.11;100.00;96132.09;4899310;28;20257;-59
2023/01/18 05:25:37;;;;;;;23.10;13.33;;;;;;;-0.14;100.00;96134.94;4895824;28;20230;-59
2023/01/18 05:28:06;;;;;;;62.93;29.03;;;;;;;-0.20;100.00;96138.06;4898048;28;20260;-58
2023/01/18 05:30:33;;;;;;;38.70;24.97;;;;;;;-0.21;100.00;96144.16;4894067;28;20725;-58
2023/01/18 05:33:01;;;;;;;12.83;7.70;;;;;;;-0.15;100.00;96148.72;4901071;28;20262;-58
2023/01/18 05:35:27;;;;;;;16.03;8.37;;;;;;;-0.16;100.00;96157.34;4896491;28;20230;-58
2023/01/18 05:37:54;;;;;;;16.23;9.60;;;;;;;-0.13;100.00;96156.28;4898258;29;20379;-58
2023/01/18 05:40:20;;;;;;;12.13;7.87;;;;;;;-0.17;100.00;96169.38;4901227;28;20238;-58
2023/01/18 05:42:47;;;;;;;14.07;7.90;;;;;;;-0.11;100.00;96167.19;4896219;29;20279;-59
2023/01/18 05:45:15;;;;;;;10.60;6.50;;;;;;;-0.06;100.00;96173.47;4898249;28;20228;-59
2023/01/18 05:47:41;;;;;;;12.23;6.77;;;;;;;-0.14;100.00;96170.03;4895746;28;20223;-58
2023/01/18 05:50:09;;;;;;;14.47;7.37;;;;;;;-0.13;100.00;96181.91;4900383;28;20234;-58
2023/01/18 05:52:36;;;;;;;11.27;6.97;;;;;;;-0.14;100.00;96177.72;4894267;28;20253;-58
2023/01/18 05:55:03;;;;;;;12.93;7.90;;;;;;;-0.11;100.00;96183.38;4899118;29;20226;-59
2023/01/18 05:57:30;;;;;;;12.70;7.57;;;;;;;-0.20;100.00;96189.34;4895500;28;20231;-59
2023/01/18 05:59:57;;;;;;;16.80;9.97;;;;;;;-0.18;100.00;96184.91;4899964;28;20235;-58
2023/01/18 06:02:25;;;;;;;15.00;7.80;;;;;;;-0.17;100.00;96195.03;4896956;28;20227;-59
2023/01/18 06:04:52;;;;;;;10.90;6.77;;;;;;;-0.21;100.00;96198.81;4899311;28;20289;-57
2023/01/18 06:07:18;;;;;;;12.17;7.43;;;;;;;-0.23;100.00;96210.97;4898114;29;20219;-59
2023/01/18 06:09:45;;;;;;;13.73;8.03;;;;;;;-0.27;100.00;96211.38;4893297;28;20247;-59
2023/01/18 06:12:11;;;;;;;17.30;8.03;;;;;;;-0.27;100.00;96221.63;4901596;28;20247;-59
2023/01/18 06:14:38;;;;;;;13.37;7.67;;;;;;;-0.25;100.00;96220.56;4892389;28;20240;-58
2023/01/18 06:17:07;;;;;;;14.97;8.53;;;;;;;-0.21;100.00;96229.59;4896482;29;20704;-59
2023/01/18 06:19:36;;;;;;;15.48;10.40;;;;;;;-0.13;100.00;96235.75;4895128;28;20452;-59
2023/01/18 06:22:02;;;;;;;17.53;10.53;;;;;;;-0.14;100.00;96242.63;4897082;29;20228;-59
2023/01/18 06:24:29;;;;;;;23.07;12.77;;;;;;;-0.13;100.00;96257.06;4900015;29;20306;-59
2023/01/18 06:26:56;;;;;;;60.20;27.60;;;;;;;-0.12;100.00;96261.25;4896005;28;20719;-58
2023/01/18 06:29:23;;;;;;;12.17;7.03;;;;;;;-0.21;100.00;96268.03;4895313;28;20936;-58
2023/01/18 06:31:50;;;;;;;7.17;3.80;;;;;;;-0.23;100.00;96277.63;4896800;29;20254;-58
2023/01/18 06:34:16;;;;;;;6.87;4.23;;;;;;;-0.42;100.00;96277.69;4896731;28;20239;-58
2023/01/18 06:36:44;;;;;;;6.60;3.67;;;;;;;-0.37;100.00;96275.53;4896423;28;20238;-59
2023/01/18 06:39:12;;;;;;;9.63;4.67;;;;;;;-0.53;100.00;96292.28;4900932;28;20240;-59
2023/01/18 06:41:39;;;;;;;6.83;4.80;;;;;;;-0.58;100.00;96291.91;4898541;29;20290;-58
2023/01/18 06:44:05;;;;;;;7.20;4.30;;;;;;;-0.61;100.00;96289.63;4898515;28;20253;-59
2023/01/18 06:46:32;;;;;;;8.40;3.90;;;;;;;-0.61;100.00;96297.31;4897966;28;20303;-58
2023/01/18 06:48:59;;;;;;;7.50;3.93;;;;;;;-0.55;100.00;96301.09;4903822;29;20250;-59
2023/01/18 06:51:25;;;;;;;8.40;4.30;;;;;;;-0.62;100.00;96303.38;4895239;28;20225;-59
2023/01/18 06:53:53;;;;;;;8.53;4.13;;;;;;;-0.71;100.00;96310.16;4899354;28;20235;-60
2023/01/18 06:56:20;;;;;;;7.33;4.57;;;;;;;-0.69;100.00;96313.38;4902078;28;20230;-59
2023/01/18 06:58:46;;;;;;;7.70;4.40;;;;;;;-0.72;100.00;96326.47;4897230;28;20243;-59
2023/01/18 07:01:13;;;;;;;8.47;4.30;;;;;;;-0.75;100.00;96331.84;4896875;28;20258;-60
2023/01/18 07:03:39;;;;;;;11.47;5.67;;;;;;;-0.74;100.00;96333.47;4899555;28;20239;-59
2023/01/18 07:06:06;;;;;;;11.43;5.63;;;;;;;-0.70;100.00;96334.81;4902927;28;20242;-58
2023/01/18 07:08:33;;;;;;;8.90;5.47;;;;;;;-0.76;100.00;96338.72;4899121;28;20744;-59
2023/01/18 07:11:05;;;;;;;11.07;6.37;;;;;;;-0.73;100.00;96347.91;4899750;29;20245;-59
2023/01/18 07:13:32;;;;;;;24.20;13.20;;;;;;;-0.69;100.00;96349.25;4899118;28;20290;-59
2023/01/18 07:16:00;;;;;;;9.93;5.77;;;;;;;-0.67;100.00;96351.66;4901389;28;20708;-59
2023/01/18 07:18:28;;;;;;;10.57;5.13;;;;;;;-0.65;100.00;96360.00;4897243;28;20249;-58
2023/01/18 07:21:00;;;;;;;8.17;4.23;;;;;;;-0.64;100.00;96366.75;4896786;29;20707;-59
2023/01/18 07:23:27;;;;;;;8.33;3.70;;;;;;;-0.48;100.00;96363.63;4892290;28;20226;-58
2023/01/18 07:26:01;;;;;;;7.03;3.77;;;;;;;-0.55;100.00;96368.50;4898273;29;20687;-59
2023/01/18 07:28:30;;;;;;;7.87;3.73;;;;;;;-0.48;100.00;96381.56;4891772;28;20229;-58
2023/01/18 07:30:57;;;;;;;9.60;4.23;;;;;;;-0.53;100.00;96379.44;4897608;29;20240;-58
2023/01/18 07:33:23;;;;;;;9.23;4.33;;;;;;;-0.51;100.00;96387.78;4895124;28;20234;-57
2023/01/18 07:35:52;;;;;;;5.47;3.60;;;;;;;-0.47;100.00;96396.00;4896085;29;20250;-58
2023/01/18 07:38:18;;;;;;;5.90;3.73;;;;;;;-0.42;100.00;96398.97;4897992;28;20731;-57
2023/01/18 07:40:46;;;;;;;9.40;3.90;;;;;;;-0.35;100.00;96396.69;4897252;28;20601;-58
2023/01/18 07:43:12;;;;;;;6.73;3.80;;;;;;;-0.29;100.00;96406.38;4895742;28;20323;-59
2023/01/18 07:45:40;;;;;;;9.43;6.30;;;;;;;-0.33;100.00;96415.28;4895484;28;20235;-59
2023/01/18 07:48:07;;;;;;;10.60;5.80;;;;;;;-0.40;100.00;96419.34;4900854;28;20248;-59
2023/01/18 07:50:34;;;;;;;15.50;7.60;;;;;;;-0.45;100.00;96424.88;4895878;28;20315;-59
2023/01/18 07:53:03;;;;;;;10.40;6.43;;;;;;;-0.38;100.00;96423.38;4897147;28;20235;-59
2023/01/18 07:55:31;;;;;;;7.93;4.13;;;;;;;-0.31;100.00;96428.78;4893358;28;20248;-59
2023/01/18 07:57:58;;;;;;;6.03;4.37;;;;;;;-0.27;100.00;96434.44;4898725;29;20322;-58
2023/01/18 08:00:25;;;;;;;8.20;4.93;;;;;;;-0.18;100.00;96433.59;4898974;28;20258;-59
2023/01/18 08:02:54;;;;;;;7.83;4.63;;;;;;;-0.11;100.00;96439.00;4898534;29;20323;-58
2023/01/18 08:05:25;;;;;;;9.00;4.60;;;;;;;-0.05;100.00;96439.25;4903244;29;20228;-59
2023/01/18 08:07:52;;;;;;;9.87;5.10;;;;;;;0.01;100.00;96445.56;4900172;29;20267;-59
2023/01/18 08:10:19;;;;;;;6.40;4.07;;;;;;;0.11;100.00;96450.69;4915357;28;20712;-59
2023/01/18 08:12:46;;;;;;;7.03;3.90;;;;;;;0.14;100.00;96447.84;4895338;29;20255;-58
2023/01/18 08:15:13;;;;;;;8.10;4.37;;;;;;;0.13;100.00;96464.19;4900733;28;20231;-59
2023/01/18 08:17:39;;;;;;;8.03;4.20;;;;;;;0.12;100.00;96460.03;4900930;28;20726;-59
2023/01/18 08:20:08;;;;;;;9.27;5.40;;;;;;;0.20;100.00;96464.44;4899675;28;20242;-59
2023/01/18 08:22:35;;;;;;;11.30;5.40;;;;;;;0.31;100.00;96471.19;4900065;29;20227;-59
2023/01/18 08:25:02;;;;;;;9.43;5.20;;;;;;;0.40;100.00;96472.91;4899471;28;20235;-59
2023/01/18 08:27:29;;;;;;;9.23;4.43;;;;;;;0.43;100.00;96483.69;4899662;28;20227;-58
2023/01/18 08:29:56;;;;;;;7.17;4.17;;;;;;;0.28;100.00;96490.22;4897920;28;20236;-59
2023/01/18 08:32:22;;;;;;;7.13;4.10;;;;;;;0.39;100.00;96487.50;4902285;28;20231;-59
2023/01/18 08:34:50;;;;;;;8.73;4.70;;;;;;;0.48;100.00;96487.59;4897988;28;20244;-59
2023/01/18 08:37:18;;;;;;;8.80;4.87;;;;;;;0.56;100.00;96493.63;4899702;28;20207;-59
2023/01/18 08:39:44;;;;;;;6.10;4.07;;;;;;;0.52;99.38;96499.22;4900451;29;20957;-59
2023/01/18 08:42:12;;;;;;;7.47;4.67;;;;;;;0.59;99.35;96503.63;4898970;29;20984;-59
2023/01/18 08:44:38;;;;;;;12.73;7.33;;;;;;;0.76;99.33;96515.88;4900879;28;20243;-58
2023/01/18 08:47:05;;;;;;;13.07;7.40;;;;;;;0.81;99.19;96522.19;4901502;28;20603;-59
2023/01/18 08:49:32;;;;;;;13.20;7.37;;;;;;;0.81;98.47;96529.13;4895295;29;20247;-59
2023/01/18 08:51:59;;;;;;;14.30;8.43;;;;;;;0.96;98.75;96532.03;4902821;28;20243;-59
2023/01/18 08:54:27;;;;;;;19.60;8.87;;;;;;;0.99;97.69;96536.88;4900119;28;20557;-60
2023/01/18 08:56:54;;;;;;;14.60;9.07;;;;;;;1.15;97.87;96543.97;4899677;28;20728;-59
2023/01/18 08:59:22;;;;;;;15.33;8.57;;;;;;;1.30;97.33;96550.25;4898639;29;20227;-59
2023/01/18 09:01:49;;;;;;;13.20;8.07;;;;;;;1.36;96.05;96550.63;4896419;28;20232;-59
2023/01/18 09:04:15;;;;;;;13.97;7.70;;;;;;;1.47;95.37;96553.00;4901783;29;20232;-59
2023/01/18 09:06:43;;;;;;;12.67;7.57;;;;;;;1.59;94.73;96556.19;4901424;29;20597;-59
2023/01/18 09:09:10;;;;;;;12.07;7.47;;;;;;;1.75;94.20;96560.66;4899829;29;20226;-59
2023/01/18 09:11:38;;;;;;;9.80;6.13;;;;;;;1.89;94.32;96564.47;4895990;28;20698;-58
2023/01/18 09:14:05;;;;;;;10.97;6.00;;;;;;;1.91;93.00;96563.41;4899592;28;20254;-60
2023/01/18 09:16:31;;;;;;;9.57;6.37;;;;;;;2.04;92.63;96568.16;4899288;28;20232;-60
2023/01/18 09:18:58;;;;;;;10.90;6.65;;;;;;;2.05;91.35;96577.50;4896979;29;20521;-60
2023/01/18 09:21:26;;;;;;;11.67;7.70;;;;;;;2.06;90.65;96575.75;4893773;28;20228;-58
2023/01/18 09:23:53;;;;;;;6.73;4.70;;;;;;;2.04;89.63;96587.94;4898583;29;20324;-59
2023/01/18 09:26:20;;;;;;;9.83;5.43;;;;;;;2.00;89.06;96594.34;4896685;28;20238;-59
2023/01/18 09:28:51;;;;;;;9.40;5.33;;;;;;;2.01;89.30;96598.53;4895504;28;20240;-59
2023/01/18 09:31:18;;;;;;;7.33;4.57;;;;;;;1.92;89.79;96598.47;4898340;29;20307;-58
2023/01/18 09:33:44;;;;;;;9.60;5.07;;;;;;;1.96;89.08;96608.47;4894535;28;20248;-57
2023/01/18 09:36:12;;;;;;;9.10;6.10;;;;;;;1.88;89.53;96612.56;4897919;29;20228;-58
2023/01/18 09:38:41;;;;;;;12.87;6.07;;;;;;;1.81;90.19;96614.09;4894033;28;20605;-58
2023/01/18 09:41:21;;;;;;;8.10;5.57;;;;;;;1.87;90.61;96621.25;4896416;29;20306;-59
2023/01/18 09:43:54;;;;;;;11.07;5.47;;;;;;;1.85;88.76;96627.47;4895947;29;20235;-58
2023/01/18 09:46:24;;;;;;;8.63;5.50;;;;;;;1.98;90.06;96638.22;4898448;28;20292;-59
2023/01/18 09:48:54;;;;;;;11.37;6.67;;;;;;;1.84;90.86;96639.53;4896648;29;20554;-58
2023/01/18 09:51:23;;;;;;;9.53;5.63;;;;;;;1.81;92.44;96641.56;4900291;29;20239;-59
2023/01/18 09:54:05;;;;;;;10.10;5.00;;;;;;;1.93;91.80;96645.56;4894993;29;20231;-59
2023/01/18 09:56:40;;;;;;;6.90;4.30;;;;;;;1.84;91.97;96654.97;4898572;28;20267;-60
2023/01/18 09:59:17;;;;;;;6.97;3.30;;;;;;;2.05;90.38;96646.19;4897467;28;20760;-59
2023/01/18 10:01:45;;;;;;;12.30;7.67;;;;;;;2.24;91.58;96644.41;4892350;28;20795;-59
2023/01/18 10:04:18;;;;;;;14.20;10.07;;;;;;;2.45;91.40;96652.63;4899011;29;20295;-59
2023/01/18 10:06:48;;;;;;;16.83;10.40;;;;;;;2.59;88.62;96653.91;4895305;28;20240;-59
2023/01/18 10:09:19;;;;;;;17.43;9.97;;;;;;;2.67;88.10;96660.88;4898581;28;20561;-59
2023/01/18 10:11:54;;;;;;;18.73;10.33;;;;;;;2.77;89.59;96664.16;4896190;28;20250;-59
2023/01/18 10:14:35;;;;;;;18.80;9.90;;;;;;;2.84;87.73;96674.66;4900738;28;20600;-58
2023/01/18 10:17:05;;;;;;;18.20;9.80;;;;;;;2.86;87.38;96679.69;4891993;29;20228;-59
2023/01/18 10:19:33;;;;;;;13.27;6.97;;;;;;;2.36;85.51;96674.94;4894879;29;20255;-58
2023/01/18 10:22:05;;;;;;;9.83;6.20;;;;;;;2.54;85.78;96674.13;4899408;28;20247;-58
2023/01/18 10:24:54;;;;;;;11.10;5.27;;;;;;;2.59;85.94;96682.22;4896150;28;20252;-59
2023/01/18 10:27:50;;;;;;;11.60;6.43;;;;;;;2.79;84.82;96692.34;4899343;28;20244;-59
2023/01/18 10:30:32;;;;;;;15.20;7.13;;;;;;;2.56;83.72;96673.97;4884421;29;20279;-59
2023/01/18 10:33:02;;;;;;;13.73;6.63;;;;;;;2.48;83.87;96678.09;4896482;28;20238;-58
2023/01/18 10:35:33;;;;;;;14.50;8.13;;;;;;;2.74;88.31;96684.25;4897543;28;20236;-59
2023/01/18 10:38:04;;;;;;;16.43;7.10;;;;;;;2.87;86.20;96692.41;4893339;28;20785;-59
2023/01/18 10:40:30;;;;;;;8.93;5.23;;;;;;;2.97;84.60;96694.91;4895956;28;20229;-59
2023/01/18 10:43:00;;;;;;;12.00;6.57;;;;;;;3.04;81.82;96698.50;4898567;28;20661;-59
2023/01/18 10:45:32;;;;;;;12.57;6.43;;;;;;;3.11;80.71;96701.28;4895495;28;20242;-58
2023/01/18 10:48:24;;;;;;;14.23;7.57;;;;;;;3.04;83.05;96701.09;4898499;28;20248;-59
2023/01/18 10:50:53;;;;;;;12.20;6.70;;;;;;;3.12;79.17;96709.84;4895347;28;20705;-59
2023/01/18 10:53:24;;;;;;;14.30;6.80;;;;;;;2.89;83.24;96705.16;4898750;28;20308;-59
2023/01/18 10:55:58;;;;;;;14.10;6.37;;;;;;;3.03;82.54;96708.94;4895839;28;20239;-59
2023/01/18 10:58:27;;;;;;;12.90;6.30;;;;;;;3.17;84.15;96710.19;4886711;28;20239;-59
2023/01/18 11:00:56;;;;;;;12.53;5.33;;;;;;;3.15;79.38;96709.53;4905602;28;20306;-59
2023/01/18 11:03:25;;;;;;;10.13;5.20;;;;;;;3.28;78.54;96717.66;4902011;29;20240;-59
2023/01/18 11:05:52;;;;;;;8.87;5.50;;;;;;;3.29;80.28;96705.56;4892660;28;20282;-59
2023/01/18 11:08:23;;;;;;;10.13;5.67;;;;;;;3.18;79.16;96719.53;4900534;28;20276;-59
2023/01/18 11:10:59;;;;;;;14.93;6.07;;;;;;;3.21;81.25;96712.31;4893154;29;20236;-59
2023/01/18 11:13:29;;;;;;;12.83;5.97;;;;;;;3.36;81.10;96720.28;4896470;28;20236;-59
2023/01/18 11:16:11;;;;;;;13.50;5.83;;;;;;;3.49;79.73;96725.03;4898679;29;20718;-58
2023/01/18 11:18:39;;;;;;;12.57;6.20;;;;;;;3.62;79.97;96726.41;4890893;29;20225;-58
2023/01/18 11:21:10;;;;;;;10.83;5.97;;;;;;;3.64;81.58;96733.00;4894425;29;20238;-59
2023/01/18 11:23:36;;;;;;;10.33;5.60;;;;;;;3.70;81.31;96741.91;4891779;28;20232;-58
2023/01/18 11:26:06;;;;;;;10.43;5.80;;;;;;;3.81;77.17;96746.00;4895722;28;20219;-59
2023/01/18 11:28:39;;;;;;;10.43;5.07;;;;;;;3.84;75.76;96737.94;4892716;28;20236;-58
2023/01/18 11:31:10;;;;;;;11.00;5.97;;;;;;;3.59;75.54;96737.81;4886876;29;21131;-59
2023/01/18 11:33:49;;;;;;;14.87;6.30;;;;;;;3.75;77.08;96738.88;4896211;28;20315;-59
2023/01/18 11:36:18;;;;;;;11.43;5.73;;;;;;;3.84;73.95;96746.47;4900411;29;20327;-59
2023/01/18 11:38:45;;;;;;;9.50;5.50;;;;;;;4.11;74.83;96751.59;4896184;29;20233;-60
2023/01/18 11:41:18;;;;;;;12.53;5.60;;;;;;;4.15;73.87;96747.75;4901848;29;20251;-60
2023/01/18 11:44:06;;;;;;;10.03;5.70;;;;;;;4.18;74.31;96747.44;4896100;28;23254;-59
2023/01/18 11:46:42;;;;;;;12.40;5.37;;;;;;;4.27;74.10;96761.16;4894739;29;20228;-59
2023/01/18 11:49:32;;;;;;;10.20;5.63;;;;;;;4.24;73.44;96759.69;4896354;29;20227;-59
2023/01/18 11:52:01;;;;;;;9.00;5.23;;;;;;;4.20;76.68;96773.09;4896512;29;20674;-60
2023/01/18 11:54:35;;;;;;;12.67;5.70;;;;;;;4.19;73.18;96767.13;4897817;29;20287;-60
2023/01/18 11:57:02;;;;;;;8.27;5.47;;;;;;;4.24;71.39;96767.44;4902790;28;20235;-60
2023/01/18 11:59:30;;;;;;;10.93;5.53;;;;;;;4.06;72.55;96774.50;4895134;28;20762;-60
2023/01/18 12:02:36;;;;;;;10.03;6.03;;;;;;;3.76;76.94;96771.44;4905041;29;20583;-59
2023/01/18 12:05:19;;;;;;;11.43;6.03;;;;;;;3.69;76.45;96772.06;4897866;28;20241;-60
2023/01/18 12:07:56;;;;;;;12.20;5.90;;;;;;;3.69;75.54;96781.59;4896535;28;20312;-59